Time;durP1;ratioP1;P1;durP2;ratioP2;P2;SDS_P1;SDS_P2;PMS_P1;PMS_P2;Temp;Humidity;BMP_temperature;BMP_pressure;BME280_temperature;BME280_humidity;BME280_pressure;Samples;Min_cycle;Max_cycle;Signal;HPM_P1;HPM_P2
2024/02/12 00:00:28;;;;;;;45.58;19.75;;;8.10;99.90;;;;;;5048125;28;20065;-65
2024/02/12 00:02:55;;;;;;;41.03;20.35;;;8.10;99.90;;;;;;5056653;28;20036;-65
2024/02/12 00:05:21;;;;;;;45.90;19.65;;;8.10;99.90;;;;;;5059606;28;20128;-65
2024/02/12 00:07:47;;;;;;;37.35;19.17;;;8.00;99.90;;;;;;5061446;28;20115;-65
2024/02/12 00:10:13;;;;;;;41.88;20.25;;;8.00;99.90;;;;;;5046828;28;20470;-65
2024/02/12 00:12:39;;;;;;;47.83;21.27;;;8.10;99.90;;;;;;5049538;28;20128;-65
2024/02/12 00:15:11;;;;;;;44.15;20.40;;;8.00;99.90;;;;;;5045078;28;20096;-65
2024/02/12 00:17:40;;;;;;;41.53;20.20;;;8.00;99.90;;;;;;5046975;28;20048;-65
2024/02/12 00:20:07;;;;;;;47.00;20.27;;;7.90;99.90;;;;;;5049408;28;20044;-65
2024/02/12 00:22:35;;;;;;;42.85;22.02;;;7.90;99.90;;;;;;5049415;28;20171;-65
2024/02/12 00:25:04;;;;;;;49.20;20.48;;;7.90;99.90;;;;;;5054818;28;20044;-65
2024/02/12 00:27:34;;;;;;;42.08;20.15;;;7.80;99.90;;;;;;5047257;28;20475;-65
2024/02/12 00:30:00;;;;;;;42.50;20.33;;;7.80;99.90;;;;;;5046281;28;20045;-65
2024/02/12 00:32:29;;;;;;;41.67;20.88;;;7.80;99.90;;;;;;5051113;28;20070;-65
2024/02/12 00:34:56;;;;;;;46.55;19.95;;;7.80;99.90;;;;;;5043178;28;20072;-65
2024/02/12 00:37:25;;;;;;;43.95;21.27;;;7.80;99.90;;;;;;5042453;28;20043;-65
2024/02/12 00:39:51;;;;;;;44.88;20.88;;;7.70;99.90;;;;;;5044302;28;20041;-65
2024/02/12 00:42:17;;;;;;;47.22;21.35;;;7.70;99.90;;;;;;5049435;28;20041;-65
2024/02/12 00:44:42;;;;;;;45.78;19.75;;;7.60;99.90;;;;;;5053929;28;20102;-65
2024/02/12 00:47:08;;;;;;;47.67;20.73;;;7.60;99.90;;;;;;5051385;28;20626;-65
2024/02/12 00:49:34;;;;;;;42.63;20.20;;;7.70;99.90;;;;;;5042103;28;20061;-65
2024/02/12 00:52:02;;;;;;;42.45;19.40;;;7.50;99.90;;;;;;5046300;28;20048;-65
2024/02/12 00:54:29;;;;;;;40.97;20.17;;;7.50;99.90;;;;;;5044726;28;20033;-65
2024/02/12 00:56:57;;;;;;;41.95;18.83;;;7.50;99.90;;;;;;5050406;28;20098;-65
2024/02/12 00:59:23;;;;;;;46.53;21.15;;;7.50;99.90;;;;;;5045119;28;20037;-65
2024/02/12 01:01:50;;;;;;;44.20;20.20;;;7.50;99.90;;;;;;5045751;28;20037;-65
2024/02/12 01:04:15;;;;;;;43.85;20.90;;;7.50;99.90;;;;;;5043902;28;20132;-65
2024/02/12 01:06:43;;;;;;;49.28;21.35;;;7.50;99.90;;;;;;5049376;28;20120;-65
2024/02/12 01:09:12;;;;;;;44.92;21.90;;;7.50;99.90;;;;;;5044050;28;20112;-65
2024/02/12 01:11:39;;;;;;;48.72;21.77;;;7.50;99.90;;;;;;5050417;28;20045;-65
2024/02/12 01:14:06;;;;;;;48.90;22.17;;;7.50;99.90;;;;;;5050400;28;20056;-65
2024/02/12 01:16:32;;;;;;;47.25;21.98;;;7.50;99.90;;;;;;5048390;28;20044;-65
2024/02/12 01:19:02;;;;;;;45.80;20.77;;;7.50;99.90;;;;;;5042828;28;20044;-65
2024/02/12 01:21:30;;;;;;;49.05;21.80;;;7.50;99.90;;;;;;5049581;28;20439;-65
2024/02/12 01:23:56;;;;;;;41.95;20.40;;;7.50;99.90;;;;;;5049678;28;20068;-65
2024/02/12 01:26:24;;;;;;;52.05;21.35;;;7.50;99.90;;;;;;5052124;28;20080;-65
2024/02/12 01:28:49;;;;;;;52.92;21.95;;;7.50;99.90;;;;;;5047658;28;20227;-65
2024/02/12 01:31:18;;;;;;;53.05;21.58;;;7.50;99.90;;;;;;5047465;28;20037;-65
2024/02/12 01:33:47;;;;;;;48.42;20.77;;;7.50;99.90;;;;;;5048653;28;20040;-65
2024/02/12 01:36:14;;;;;;;48.28;22.20;;;7.60;99.90;;;;;;5049523;28;20044;-65
2024/02/12 01:38:41;;;;;;;45.33;20.70;;;7.50;99.90;;;;;;5047027;28;20053;-65
2024/02/12 01:41:07;;;;;;;46.22;20.83;;;7.60;99.90;;;;;;5057550;28;20063;-65
2024/02/12 01:43:35;;;;;;;46.15;21.27;;;7.60;99.90;;;;;;5054760;28;20489;-65
2024/02/12 01:46:05;;;;;;;48.58;22.55;;;7.60;99.90;;;;;;5044849;28;20048;-65
2024/02/12 01:48:32;;;;;;;50.13;22.13;;;7.60;99.90;;;;;;5043992;28;20045;-65
2024/02/12 01:51:00;;;;;;;50.47;22.25;;;7.60;99.90;;;;;;5050679;28;20036;-65
2024/02/12 01:53:26;;;;;;;47.55;21.17;;;7.60;99.90;;;;;;5049801;28;20447;-65
2024/02/12 01:55:52;;;;;;;52.80;21.67;;;7.60;99.90;;;;;;5053627;28;20090;-65
2024/02/12 01:58:18;;;;;;;51.83;22.88;;;7.60;99.90;;;;;;5048039;28;20032;-65
2024/02/12 02:00:48;;;;;;;50.42;23.35;;;7.60;99.90;;;;;;5059496;28;21674;-65
2024/02/12 02:03:17;;;;;;;44.60;21.50;;;7.60;99.90;;;;;;5043418;28;20080;-65
2024/02/12 02:05:45;;;;;;;50.60;21.85;;;7.70;99.90;;;;;;5042393;28;20500;-65
2024/02/12 02:08:13;;;;;;;54.10;21.40;;;7.70;99.90;;;;;;5043008;28;20037;-65
2024/02/12 02:10:39;;;;;;;49.35;21.48;;;7.70;99.90;;;;;;5047300;28;20037;-65
2024/02/12 02:13:06;;;;;;;50.58;22.10;;;7.70;99.90;;;;;;5050070;28;20565;-65
2024/02/12 02:15:32;;;;;;;48.55;20.80;;;7.70;99.90;;;;;;5040342;28;20527;-65
2024/02/12 02:17:58;;;;;;;48.03;21.02;;;7.70;99.90;;;;;;5049103;28;20087;-65
2024/02/12 02:20:25;;;;;;;53.65;21.88;;;7.70;99.90;;;;;;5047163;28;20492;-65
2024/02/12 02:22:52;;;;;;;50.85;20.98;;;7.70;99.90;;;;;;5052944;28;20367;-65
2024/02/12 02:25:20;;;;;;;55.05;21.95;;;7.70;99.90;;;;;;5046374;28;20405;-65
2024/02/12 02:27:46;;;;;;;46.33;20.88;;;7.70;99.90;;;;;;5049112;28;20091;-65
2024/02/12 02:30:12;;;;;;;45.03;20.80;;;7.70;99.90;;;;;;5052385;28;20045;-65
2024/02/12 02:32:39;;;;;;;40.47;19.63;;;7.70;99.90;;;;;;5042956;28;20046;-65
2024/02/12 02:35:05;;;;;;;51.00;19.63;;;7.70;99.90;;;;;;5053804;28;20041;-65
2024/02/12 02:37:32;;;;;;;39.60;19.27;;;7.70;99.90;;;;;;5047678;28;20124;-65
2024/02/12 02:39:57;;;;;;;38.58;18.23;;;7.70;99.90;;;;;;5049916;28;20812;-65
2024/02/12 02:42:24;;;;;;;42.58;18.48;;;7.70;99.90;;;;;;5051727;28;20116;-65
2024/02/12 02:44:50;;;;;;;40.92;18.08;;;7.70;99.90;;;;;;5055217;28;20044;-65
2024/02/12 02:47:16;;;;;;;36.97;17.15;;;7.80;99.90;;;;;;5058761;28;20037;-65
2024/02/12 02:49:42;;;;;;;39.75;17.73;;;7.30;99.90;;;;;;5052879;28;20094;-65
2024/02/12 02:52:07;;;;;;;36.50;17.70;;;7.70;99.90;;;;;;5048172;28;20116;-66
2024/02/12 02:54:33;;;;;;;37.38;17.20;;;7.70;99.90;;;;;;5052512;28;20399;-65
2024/02/12 02:57:00;;;;;;;37.60;17.15;;;7.70;99.90;;;;;;5053299;28;20033;-65
2024/02/12 02:59:26;;;;;;;37.05;17.50;;;7.60;99.90;;;;;;5041101;28;20496;-66
2024/02/12 03:01:51;;;;;;;36.60;16.85;;;7.70;99.90;;;;;;5044585;28;20036;-65
2024/02/12 03:04:17;;;;;;;35.78;16.65;;;7.60;99.90;;;;;;5046912;28;20037;-65
2024/02/12 03:06:43;;;;;;;37.88;16.60;;;7.70;99.90;;;;;;5050124;28;20045;-66
2024/02/12 03:09:10;;;;;;;35.05;16.75;;;7.60;99.90;;;;;;5045733;28;20444;-65
2024/02/12 03:11:37;;;;;;;38.00;17.58;;;7.60;99.90;;;;;;5047344;28;20045;-65
2024/02/12 03:14:03;;;;;;;35.20;15.63;;;7.70;99.90;;;;;;5044481;28;20072;-65
2024/02/12 03:16:29;;;;;;;35.33;15.60;;;7.60;99.90;;;;;;5044770;28;20069;-65
2024/02/12 03:18:55;;;;;;;35.20;15.98;;;7.60;99.90;;;;;;5050312;28;20041;-65
2024/02/12 03:21:23;;;;;;;38.28;16.48;;;7.60;99.90;;;;;;5047343;28;20048;-65
2024/02/12 03:23:49;;;;;;;34.28;17.05;;;7.70;99.90;;;;;;5050745;28;20377;-65
2024/02/12 03:26:15;;;;;;;41.97;17.02;;;7.60;99.90;;;;;;5047719;28;20496;-65
2024/02/12 03:28:41;;;;;;;34.35;16.67;;;7.60;99.90;;;;;;5039702;28;20666;-65
2024/02/12 03:31:08;;;;;;;33.67;15.80;;;7.60;99.90;;;;;;5053899;28;20077;-65
2024/02/12 03:33:33;;;;;;;36.75;17.00;;;7.70;99.90;;;;;;5049644;28;20064;-65
2024/02/12 03:36:00;;;;;;;36.80;17.25;;;7.70;99.90;;;;;;5050924;28;20060;-65
2024/02/12 03:38:27;;;;;;;35.03;16.55;;;7.60;99.90;;;;;;5046031;28;20064;-65
2024/02/12 03:40:53;;;;;;;34.40;16.58;;;7.60;99.90;;;;;;5042651;28;20041;-65
2024/02/12 03:43:22;;;;;;;33.95;16.17;;;7.60;99.90;;;;;;5051399;28;20037;-65
2024/02/12 03:45:48;;;;;;;36.15;16.88;;;7.60;99.90;;;;;;5050807;28;20053;-66
2024/02/12 04:02:01;;;;;;;31.98;15.45;;;7.60;99.90;;;;;;5044248;28;20504;-65
2024/02/12 04:04:27;;;;;;;29.85;15.15;;;7.60;99.90;;;;;;5045925;28;20047;-66
2024/02/12 04:06:54;;;;;;;33.33;14.02;;;7.70;99.90;;;;;;5046850;28;20037;-65
2024/02/12 04:09:20;;;;;;;36.13;15.73;;;7.70;99.90;;;;;;5051285;28;20075;-65
2024/02/12 04:11:47;;;;;;;33.08;15.00;;;7.70;99.90;;;;;;5052899;28;20040;-66
2024/02/12 04:14:13;;;;;;;29.40;14.88;;;7.70;99.90;;;;;;5051162;28;20120;-65
2024/02/12 04:16:47;;;;;;;29.90;14.52;;;7.70;99.90;;;;;;5047120;28;20129;-65
2024/02/12 04:19:13;;;;;;;28.17;14.23;;;7.70;99.90;;;;;;5052698;28;20047;-65
2024/02/12 04:21:40;;;;;;;34.47;15.95;;;7.70;99.90;;;;;;5045840;28;20128;-65
2024/02/12 04:24:06;;;;;;;33.60;16.13;;;7.70;99.90;;;;;;5049770;28;20040;-65
2024/02/12 04:26:32;;;;;;;34.78;16.10;;;7.70;99.90;;;;;;5042987;28;20495;-65
2024/02/12 04:28:58;;;;;;;32.80;16.23;;;7.70;99.90;;;;;;5048847;28;20029;-66
2024/02/12 04:31:26;;;;;;;33.88;16.55;;;7.70;99.90;;;;;;5053063;28;20036;-65
2024/02/12 04:33:53;;;;;;;39.30;17.27;;;7.60;99.90;;;;;;5049110;28;20120;-65
2024/02/12 04:36:23;;;;;;;40.67;18.52;;;7.60;99.90;;;;;;5044262;28;20045;-65
2024/02/12 04:38:48;;;;;;;40.10;17.58;;;7.70;99.90;;;;;;5053488;28;20045;-65
2024/02/12 04:41:14;;;;;;;40.10;17.48;;;7.60;99.90;;;;;;5049776;28;20504;-65
2024/02/12 04:43:41;;;;;;;39.03;18.23;;;7.60;99.90;;;;;;5048421;28;20124;-65
2024/02/12 04:46:08;;;;;;;42.45;19.67;;;7.60;99.90;;;;;;5044375;28;20097;-65
2024/02/12 04:48:33;;;;;;;37.70;18.63;;;7.60;99.90;;;;;;5046954;28;20041;-65
2024/02/12 04:50:59;;;;;;;46.70;19.60;;;7.60;99.90;;;;;;5048032;28;20049;-65
2024/02/12 04:53:26;;;;;;;46.72;20.65;;;7.60;99.90;;;;;;5050172;28;20675;-65
2024/02/12 04:55:52;;;;;;;47.35;21.33;;;7.60;99.90;;;;;;5048944;28;20404;-65
2024/02/12 04:58:17;;;;;;;43.30;20.23;;;7.60;99.90;;;;;;5050115;28;20033;-65
2024/02/12 05:00:43;;;;;;;42.70;19.80;;;7.60;99.90;;;;;;5048732;28;20032;-65
2024/02/12 05:03:08;;;;;;;47.63;21.02;;;7.60;99.90;;;;;;5049239;28;20489;-65
2024/02/12 05:05:34;;;;;;;46.92;21.13;;;7.60;99.90;;;;;;5038772;28;20040;-65
2024/02/12 05:08:03;;;;;;;45.03;20.10;;;7.60;99.90;;;;;;5047575;28;20052;-65
2024/02/12 05:10:30;;;;;;;46.75;20.95;;;7.50;99.90;;;;;;5049059;28;20080;-65
2024/02/12 05:12:56;;;;;;;42.80;21.00;;;7.50;99.90;;;;;;5049372;28;20551;-65
2024/02/12 05:15:23;;;;;;;43.90;20.70;;;7.50;99.90;;;;;;5044260;28;20048;-65
2024/02/12 05:17:55;;;;;;;42.75;20.77;;;7.40;99.90;;;;;;5047218;28;20080;-65
2024/02/12 05:23:09;;;;;;;47.58;22.58;;;7.40;99.90;;;;;;5053669;28;20128;-65
2024/02/12 05:25:35;;;;;;;50.72;22.25;;;7.30;99.90;;;;;;5045042;28;20096;-65
2024/02/12 05:28:01;;;;;;;49.75;21.60;;;7.30;99.90;;;;;;5046112;28;20072;-66
2024/02/12 05:30:26;;;;;;;52.15;22.45;;;7.30;99.90;;;;;;5045079;28;20068;-65
2024/02/12 05:32:52;;;;;;;53.17;23.50;;;7.30;99.90;;;;;;5049710;28;20040;-65
2024/02/12 05:35:18;;;;;;;48.78;23.77;;;7.30;99.90;;;;;;5042093;28;20115;-65
2024/02/12 05:37:44;;;;;;;47.85;22.48;;;7.20;99.90;;;;;;5047289;28;20049;-65
2024/02/12 05:40:10;;;;;;;49.38;22.80;;;7.20;99.90;;;;;;5049720;28;20045;-65
2024/02/12 05:42:38;;;;;;;49.05;23.02;;;7.20;99.90;;;;;;5047104;28;20033;-65
2024/02/12 05:45:05;;;;;;;55.03;23.45;;;7.20;99.90;;;;;;5038306;28;20052;-65
2024/02/12 05:47:30;;;;;;;48.22;23.50;;;7.20;99.90;;;;;;5056674;28;20049;-65
2024/02/12 05:49:56;;;;;;;52.90;22.52;;;7.20;99.90;;;;;;5050099;28;20123;-65
2024/02/12 05:52:22;;;;;;;51.70;23.65;;;7.10;99.90;;;;;;5045842;28;20042;-65
2024/02/12 05:54:47;;;;;;;48.47;22.80;;;7.10;99.90;;;;;;5041000;28;20044;-65
2024/02/12 05:57:13;;;;;;;49.25;23.13;;;7.10;99.90;;;;;;5051959;28;20044;-65
2024/02/12 05:59:39;;;;;;;47.08;22.30;;;7.10;99.90;;;;;;5053761;28;20074;-65
2024/02/12 06:02:05;;;;;;;48.17;22.20;;;7.10;99.90;;;;;;5053669;28;20101;-65
2024/02/12 06:04:31;;;;;;;49.05;23.77;;;7.10;99.90;;;;;;5051737;28;20045;-65
2024/02/12 06:07:00;;;;;;;54.88;24.10;;;7.10;99.90;;;;;;5053637;28;20088;-65
2024/02/12 06:09:27;;;;;;;61.67;24.67;;;7.00;99.90;;;;;;5045570;28;20060;-65
2024/02/12 06:11:53;;;;;;;60.85;25.17;;;7.10;99.90;;;;;;5050890;28;20051;-65
2024/02/12 06:14:20;;;;;;;61.30;24.73;;;7.10;99.90;;;;;;5049280;28;20061;-65
2024/02/12 06:16:46;;;;;;;52.30;25.75;;;7.10;99.90;;;;;;5051515;28;20675;-65
2024/02/12 06:19:11;;;;;;;56.63;25.73;;;7.10;99.90;;;;;;5047157;28;20033;-65
2024/02/12 06:21:37;;;;;;;60.78;25.52;;;7.10;99.90;;;;;;5045588;28;20136;-65
2024/02/12 06:24:06;;;;;;;59.92;26.20;;;7.10;99.90;;;;;;5049363;28;20044;-65
2024/02/12 06:26:33;;;;;;;60.42;25.77;;;7.20;99.90;;;;;;5042319;28;20108;-65
2024/02/12 06:28:58;;;;;;;61.08;26.50;;;7.20;99.90;;;;;;5051145;28;20049;-65
2024/02/12 06:31:25;;;;;;;61.72;25.98;;;7.20;99.90;;;;;;5053572;28;20081;-65
2024/02/12 06:33:51;;;;;;;61.47;26.63;;;7.20;99.90;;;;;;5054369;28;20041;-66
2024/02/12 06:36:17;;;;;;;61.53;25.88;;;7.20;99.90;;;;;;5048573;28;20040;-65
2024/02/12 06:38:42;;;;;;;57.15;24.77;;;7.20;99.90;;;;;;5052512;28;20045;-65
2024/02/12 06:41:09;;;;;;;62.13;25.77;;;7.20;99.90;;;;;;5050731;28;21399;-65
2024/02/12 06:43:34;;;;;;;56.15;25.50;;;7.20;99.90;;;;;;5046910;28;20045;-65
2024/02/12 06:46:01;;;;;;;70.63;25.58;;;7.20;99.90;;;;;;5041808;28;20129;-65
2024/02/12 06:48:27;;;;;;;59.58;25.70;;;7.20;99.90;;;;;;5051698;28;20123;-65
2024/02/12 06:50:53;;;;;;;59.00;27.00;;;7.30;99.90;;;;;;5050954;28;20041;-65
2024/02/12 06:53:19;;;;;;;58.70;24.70;;;7.30;99.90;;;;;;5053315;28;20554;-65
2024/02/12 06:55:46;;;;;;;57.97;24.00;;;7.30;99.90;;;;;;5052663;28;20043;-65
2024/02/12 06:58:11;;;;;;;60.03;25.25;;;7.30;99.90;;;;;;5049807;28;20486;-65
2024/02/12 07:00:37;;;;;;;55.83;24.92;;;7.30;99.90;;;;;;5051493;28;20076;-65
2024/02/12 07:03:04;;;;;;;54.38;24.88;;;7.30;99.90;;;;;;5052160;28;20068;-65
2024/02/12 07:05:30;;;;;;;56.60;24.25;;;7.30;99.90;;;;;;5052990;28;20036;-65
2024/02/12 07:07:56;;;;;;;56.47;25.52;;;7.30;99.90;;;;;;5057324;28;20037;-65
2024/02/12 07:10:23;;;;;;;58.70;25.42;;;7.30;99.90;;;;;;5051450;28;20045;-65
2024/02/12 07:12:49;;;;;;;52.92;24.70;;;7.30;99.90;;;;;;5054516;28;20043;-65
2024/02/12 07:15:15;;;;;;;54.78;24.17;;;7.30;99.90;;;;;;5053507;28;20041;-65
2024/02/12 07:17:41;;;;;;;52.35;24.60;;;7.30;99.90;;;;;;5048506;28;20488;-65
2024/02/12 07:20:10;;;;;;;55.83;23.33;;;7.30;99.90;;;;;;5051861;28;20036;-65
2024/02/12 07:22:36;;;;;;;55.70;23.13;;;7.30;99.90;;;;;;5048069;28;20691;-65
2024/02/12 07:25:03;;;;;;;59.47;25.13;;;7.30;99.90;;;;;;5048555;28;20539;-65
2024/02/12 07:27:29;;;;;;;55.22;24.38;;;7.30;99.90;;;;;;5040080;28;20041;-65
2024/02/12 07:29:55;;;;;;;53.22;22.55;;;7.30;99.90;;;;;;5045849;28;20036;-65
2024/02/12 07:32:21;;;;;;;54.03;24.27;;;7.30;99.90;;;;;;5047723;28;20029;-65
2024/02/12 07:34:47;;;;;;;55.33;24.88;;;7.30;99.90;;;;;;5050520;28;20040;-65
2024/02/12 07:37:13;;;;;;;59.40;24.27;;;7.30;99.90;;;;;;5044445;28;20051;-65
2024/02/12 07:39:39;;;;;;;62.72;25.60;;;7.30;99.90;;;;;;5051865;28;20472;-65
2024/02/12 07:42:09;;;;;;;56.92;24.13;;;7.30;99.90;;;;;;5048331;28;20044;-65
2024/02/12 07:44:36;;;;;;;56.70;23.42;;;7.30;99.90;;;;;;5041786;28;20484;-65
2024/02/12 07:47:05;;;;;;;67.05;25.10;;;7.30;99.90;;;;;;5050069;28;20044;-65
2024/02/12 07:49:31;;;;;;;59.05;23.75;;;7.30;99.90;;;;;;5049370;28;20045;-65
2024/02/12 07:52:01;;;;;;;57.45;23.70;;;7.30;99.90;;;;;;5050851;28;20484;-65
2024/02/12 07:54:28;;;;;;;62.72;25.58;;;7.30;99.90;;;;;;5043630;28;20045;-65
2024/02/12 07:56:54;;;;;;;57.08;23.73;;;7.30;99.90;;;;;;5047224;28;20076;-65
2024/02/12 07:59:20;;;;;;;60.53;24.40;;;7.20;99.90;;;;;;5050537;28;20048;-65
2024/02/12 08:01:46;;;;;;;50.65;23.75;;;7.30;99.90;;;;;;5050266;28;20041;-65
2024/02/12 08:04:12;;;;;;;53.90;24.08;;;7.20;99.90;;;;;;5050600;28;20116;-65
2024/02/12 08:06:38;;;;;;;61.35;25.85;;;7.30;99.90;;;;;;5050310;28;20065;-65
2024/02/12 08:09:04;;;;;;;57.90;24.48;;;7.20;99.90;;;;;;5049678;28;20087;-65
2024/02/12 08:11:30;;;;;;;52.67;24.20;;;7.30;99.90;;;;;;5034588;28;20045;-65
2024/02/12 08:13:56;;;;;;;63.17;25.35;;;7.30;99.90;;;;;;5050711;28;20076;-65
2024/02/12 08:16:22;;;;;;;58.20;23.77;;;7.20;99.90;;;;;;5043103;28;20079;-65
2024/02/12 08:18:48;;;;;;;51.58;23.05;;;7.20;99.90;;;;;;5046213;28;20484;-65
2024/02/12 08:21:14;;;;;;;57.00;24.25;;;7.20;99.90;;;;;;5051195;28;20048;-65
2024/02/12 08:23:40;;;;;;;52.33;23.98;;;7.20;99.90;;;;;;5052292;28;20029;-65
2024/02/12 08:26:06;;;;;;;54.42;25.08;;;7.20;99.90;;;;;;5048975;28;20099;-66
2024/02/12 08:28:33;;;;;;;57.33;24.20;;;7.20;99.90;;;;;;5049504;28;20037;-65
2024/02/12 08:31:02;;;;;;;53.45;24.45;;;7.20;99.90;;;;;;5050526;28;20041;-66
2024/02/12 08:33:28;;;;;;;58.75;26.23;;;7.20;99.90;;;;;;5049180;28;20045;-66
2024/02/12 08:35:53;;;;;;;61.45;26.33;;;7.20;99.90;;;;;;5059492;28;20727;-65
2024/02/12 08:38:19;;;;;;;58.05;24.90;;;7.30;99.90;;;;;;5057355;28;20029;-65
2024/02/12 08:40:45;;;;;;;62.38;25.30;;;7.30;99.90;;;;;;5048410;28;20025;-66
2024/02/12 08:43:10;;;;;;;57.00;24.92;;;7.30;99.90;;;;;;5049654;28;20121;-66
2024/02/12 08:45:36;;;;;;;57.97;24.95;;;7.30;99.90;;;;;;5045786;28;20033;-66
2024/02/12 08:48:02;;;;;;;56.55;25.55;;;7.40;99.90;;;;;;5058257;28;20059;-65
2024/02/12 08:50:27;;;;;;;57.78;26.05;;;7.50;99.90;;;;;;5048786;28;20041;-66
2024/02/12 08:52:53;;;;;;;63.55;27.30;;;7.50;99.90;;;;;;5047520;28;20033;-66
2024/02/12 08:55:19;;;;;;;66.38;27.77;;;7.50;99.90;;;;;;5044119;28;20242;-66
2024/02/12 08:57:45;;;;;;;62.88;27.45;;;7.50;99.90;;;;;;5040299;28;20040;-66
2024/02/12 09:00:12;;;;;;;70.45;27.98;;;7.50;99.90;;;;;;5048414;28;20052;-66
2024/02/12 09:02:37;;;;;;;57.80;26.15;;;7.50;99.90;;;;;;5048755;28;20053;-66
2024/02/12 09:05:10;;;;;;;63.83;26.95;;;7.60;99.90;;;;;;5054058;28;20098;-66
2024/02/12 09:07:42;;;;;;;60.80;26.45;;;7.50;99.90;;;;;;5043692;28;20041;-66
2024/02/12 09:10:11;;;;;;;64.68;27.33;;;7.60;99.90;;;;;;5047558;28;20056;-66
2024/02/12 09:12:38;;;;;;;63.63;27.52;;;7.60;99.90;;;;;;5048276;28;20037;-66
2024/02/12 09:15:10;;;;;;;63.20;26.60;;;7.50;99.90;;;;;;5047428;28;20433;-66
2024/02/12 09:17:36;;;;;;;62.88;27.42;;;7.60;99.90;;;;;;5049208;28;20131;-66
2024/02/12 09:20:02;;;;;;;62.15;27.98;;;7.70;99.90;;;;;;5060125;28;20574;-65
2024/02/12 09:22:29;;;;;;;63.05;27.92;;;7.60;99.90;;;;;;5051042;28;20045;-66
2024/02/12 09:24:55;;;;;;;58.65;27.63;;;7.70;99.90;;;;;;5044776;28;22173;-66
2024/02/12 09:27:20;;;;;;;54.65;26.52;;;7.70;99.90;;;;;;5041489;28;20144;-66
2024/02/12 09:29:47;;;;;;;62.60;27.48;;;7.70;99.90;;;;;;5049098;28;20072;-66
2024/02/12 09:32:14;;;;;;;60.47;26.70;;;7.80;99.90;;;;;;5043074;28;20036;-65
2024/02/12 09:34:40;;;;;;;59.97;26.73;;;7.80;99.90;;;;;;5050248;28;20037;-65
2024/02/12 09:37:06;;;;;;;62.70;28.02;;;7.80;99.90;;;;;;5042123;28;20032;-65
2024/02/12 09:39:33;;;;;;;56.30;26.70;;;7.70;99.90;;;;;;5048497;28;20043;-65
2024/02/12 09:42:01;;;;;;;54.65;26.08;;;7.70;99.90;;;;;;5048434;28;20045;-65
2024/02/12 09:44:29;;;;;;;57.22;24.77;;;7.70;99.90;;;;;;5039337;28;20531;-66
2024/02/12 09:47:03;;;;;;;57.03;25.23;;;7.80;99.90;;;;;;5055532;28;20044;-65
2024/02/12 09:49:30;;;;;;;57.15;25.80;;;7.90;99.90;;;;;;5046294;28;20243;-65
2024/02/12 09:51:58;;;;;;;52.55;25.45;;;8.00;99.90;;;;;;5043132;28;20029;-65
2024/02/12 09:54:23;;;;;;;55.53;23.92;;;8.10;99.90;;;;;;5048281;28;20369;-65
2024/02/12 09:56:50;;;;;;;40.50;22.08;;;8.10;99.90;;;;;;5053092;28;20025;-66
2024/02/12 09:59:16;;;;;;;51.08;22.50;;;8.20;99.90;;;;;;5051183;28;20048;-65
2024/02/12 10:01:42;;;;;;;45.70;21.35;;;8.20;99.90;;;;;;5049776;28;20427;-66
2024/02/12 10:04:08;;;;;;;41.72;19.45;;;8.20;99.90;;;;;;5043982;28;20368;-66
2024/02/12 10:06:34;;;;;;;46.45;19.88;;;8.30;99.90;;;;;;5049006;28;20048;-65
2024/02/12 10:09:07;;;;;;;40.67;17.77;;;8.20;99.90;;;;;;5047453;28;20397;-65
2024/02/12 10:11:33;;;;;;;39.22;17.30;;;8.20;99.90;;;;;;5047821;28;20045;-66
2024/02/12 10:14:04;;;;;;;29.55;16.30;;;8.30;99.90;;;;;;5056850;28;20149;-65
2024/02/12 10:16:31;;;;;;;39.83;18.55;;;8.30;99.90;;;;;;5038239;28;20489;-65
2024/02/12 10:18:58;;;;;;;38.85;18.00;;;8.30;99.90;;;;;;5049785;28;20443;-65
2024/02/12 10:21:24;;;;;;;34.00;17.95;;;8.40;99.90;;;;;;5045302;28;20037;-65
2024/02/12 10:23:52;;;;;;;37.78;18.63;;;8.40;99.90;;;;;;5049502;28;20097;-66
2024/02/12 10:26:25;;;;;;;37.60;17.55;;;8.40;99.90;;;;;;5054086;28;20045;-65
2024/02/12 10:28:54;;;;;;;;;;;8.40;99.90;;;;;;5051372;28;20107;-66
2024/02/12 10:31:22;;;;;;;36.90;18.23;;;8.40;99.90;;;;;;5050114;28;19924;-66
2024/02/12 10:33:48;;;;;;;40.42;19.65;;;8.40;99.90;;;;;;5046217;28;20473;-65
2024/02/12 10:36:18;;;;;;;40.75;19.63;;;8.50;99.90;;;;;;5049250;28;20048;-65
2024/02/12 10:38:46;;;;;;;36.85;17.17;;;8.50;99.90;;;;;;5044617;28;20076;-65
2024/02/12 10:41:34;;;;;;;36.50;16.23;;;8.50;99.90;;;;;;5045331;28;20407;-66
2024/02/12 10:44:01;;;;;;;34.00;16.23;;;8.50;99.90;;;;;;5045795;28;20056;-66
2024/02/12 10:46:31;;;;;;;33.42;15.85;;;8.60;99.90;;;;;;5044396;28;20047;-65
2024/02/12 10:48:58;;;;;;;27.55;11.63;;;8.70;99.90;;;;;;5052093;28;20043;-65
2024/02/12 10:51:24;;;;;;;19.23;8.82;;;8.70;99.90;;;;;;5048488;28;20041;-65
2024/02/12 10:53:53;;;;;;;20.20;8.90;;;8.70;99.90;;;;;;5047547;28;20039;-65
2024/02/12 10:56:19;;;;;;;25.60;10.65;;;8.70;99.90;;;;;;5050269;28;20044;-65
2024/02/12 10:58:46;;;;;;;22.35;10.98;;;8.70;99.90;;;;;;5046801;28;20045;-65
2024/02/12 11:01:13;;;;;;;27.10;11.30;;;8.70;99.90;;;;;;5066373;28;20131;-66
2024/02/12 11:03:40;;;;;;;34.42;12.45;;;8.70;99.90;;;;;;5045905;28;20045;-65
2024/02/12 11:06:10;;;;;;;27.42;12.57;;;8.80;99.90;;;;;;5052861;28;20033;-65
2024/02/12 11:08:43;;;;;;;28.20;12.52;;;8.80;99.90;;;;;;5047170;28;20041;-65
2024/02/12 11:11:18;;;;;;;25.52;12.02;;;8.80;99.90;;;;;;5050310;28;20326;-65
2024/02/12 11:13:46;;;;;;;28.70;11.82;;;8.80;99.90;;;;;;5051745;28;20036;-65
2024/02/12 11:16:16;;;;;;;22.08;11.63;;;8.80;99.90;;;;;;5047217;28;20477;-65
2024/02/12 11:18:42;;;;;;;24.38;11.55;;;8.80;99.90;;;;;;5045032;28;20036;-65
2024/02/12 11:21:11;;;;;;;23.00;10.80;;;8.90;99.90;;;;;;5048836;28;20132;-65
2024/02/12 11:23:40;;;;;;;22.35;11.07;;;8.80;99.90;;;;;;5052877;28;20040;-65
2024/02/12 11:26:06;;;;;;;24.38;11.40;;;8.80;99.90;;;;;;5045574;28;20503;-65
2024/02/12 11:28:32;;;;;;;18.58;10.50;;;8.90;99.90;;;;;;5048874;28;20041;-65
2024/02/12 11:30:58;;;;;;;22.77;9.80;;;8.90;99.90;;;;;;5050194;28;20040;-66
2024/02/12 11:33:24;;;;;;;21.33;10.43;;;8.90;99.90;;;;;;5045210;28;20037;-65
2024/02/12 11:36:01;;;;;;;24.23;9.90;;;8.90;99.90;;;;;;5048505;28;20056;-65
2024/02/12 11:38:27;;;;;;;21.02;10.73;;;8.90;99.90;;;;;;5039847;28;20108;-65
2024/02/12 11:41:01;;;;;;;22.23;10.48;;;9.00;99.90;;;;;;5046727;28;20120;-65
2024/02/12 11:43:27;;;;;;;21.40;10.15;;;9.00;99.90;;;;;;5051022;28;20503;-65
2024/02/12 11:46:02;;;;;;;22.00;10.65;;;9.00;99.90;;;;;;5047565;28;20114;-65
2024/02/12 11:48:29;;;;;;;24.13;10.77;;;9.00;99.90;;;;;;5049326;28;20045;-65
2024/02/12 11:50:57;;;;;;;20.95;10.38;;;9.00;99.90;;;;;;5054619;28;20039;-65
2024/02/12 11:53:25;;;;;;;20.00;10.35;;;9.00;99.90;;;;;;5041828;28;20041;-65
2024/02/12 11:55:51;;;;;;;22.00;10.38;;;9.10;99.90;;;;;;5056837;28;20040;-65
2024/02/12 11:58:17;;;;;;;19.17;9.57;;;9.10;99.90;;;;;;5049585;28;20036;-65
2024/02/12 12:00:44;;;;;;;19.27;9.20;;;8.70;99.90;;;;;;5054325;28;20044;-65
2024/02/12 12:03:10;;;;;;;14.93;8.05;;;9.20;99.90;;;;;;5051850;28;20044;-65
2024/02/12 12:05:38;;;;;;;20.42;8.25;;;9.20;99.90;;;;;;5051437;28;20240;-65
2024/02/12 12:08:06;;;;;;;18.40;7.80;;;9.20;99.90;;;;;;5048751;28;20071;-65
2024/02/12 12:10:35;;;;;;;15.23;7.53;;;9.20;99.90;;;;;;5050299;28;20071;-65
2024/02/12 12:13:01;;;;;;;15.68;7.72;;;9.30;99.90;;;;;;5053325;28;20053;-65
2024/02/12 12:15:28;;;;;;;13.63;5.50;;;9.30;99.90;;;;;;5055230;28;20033;-65
2024/02/12 12:17:54;;;;;;;11.68;5.45;;;9.30;99.90;;;;;;5052504;28;20040;-65
2024/02/12 12:20:20;;;;;;;14.60;6.13;;;9.40;99.90;;;;;;5051555;28;20436;-67
2024/02/12 12:22:48;;;;;;;18.05;5.78;;;9.40;99.90;;;;;;5046404;28;20051;-65
2024/02/12 12:25:18;;;;;;;13.02;5.95;;;9.50;99.90;;;;;;5037669;28;20048;-65
2024/02/12 12:27:44;;;;;;;14.07;5.45;;;9.60;99.90;;;;;;5051408;28;20049;-65
2024/02/12 12:30:14;;;;;;;12.02;5.32;;;9.60;99.90;;;;;;5059752;28;20033;-65
2024/02/12 12:32:48;;;;;;;20.67;7.50;;;9.70;99.90;;;;;;5049239;28;20043;-65
2024/02/12 12:35:18;;;;;;;22.23;7.53;;;9.70;99.90;;;;;;5046302;28;20420;-65
2024/02/12 12:37:45;;;;;;;18.30;6.35;;;9.70;99.90;;;;;;5046050;28;20377;-65
2024/02/12 12:40:18;;;;;;;15.80;7.13;;;9.60;99.90;;;;;;5034190;28;20094;-65
2024/02/12 12:42:45;;;;;;;19.85;6.63;;;9.60;99.90;;;;;;5057778;28;20550;-65
2024/02/12 12:45:11;;;;;;;13.95;6.75;;;9.60;99.90;;;;;;5056074;28;20045;-65
2024/02/12 12:47:37;;;;;;;15.73;5.78;;;9.50;99.90;;;;;;5049999;28;20076;-65
2024/02/12 12:50:07;;;;;;;15.15;6.10;;;9.60;99.90;;;;;;5037205;28;20041;-65
2024/02/12 12:52:35;;;;;;;16.77;5.90;;;9.70;99.90;;;;;;5049772;28;20128;-65